Time;durP1;ratioP1;P1;durP2;ratioP2;P2;SDS_P1;SDS_P2;PMS_P1;PMS_P2;Temp;Humidity;BMP_temperature;BMP_pressure;BME280_temperature;BME280_humidity;BME280_pressure;Samples;Min_cycle;Max_cycle;Signal;HPM_P1;HPM_P2
2023/08/31 00:00:26;;;;;;;9.45;3.08;;;18.80;99.90;;;;;;5090742;28;20051;-69
2023/08/31 00:03:32;;;;;;;9.05;2.70;;;18.80;99.90;;;;;;5091802;28;20043;-69
2023/08/31 00:06:36;;;;;;;8.52;2.47;;;18.90;99.90;;;;;;5091236;28;20043;-69
2023/08/31 00:09:40;;;;;;;14.00;2.97;;;18.90;99.90;;;;;;5091093;28;20052;-69
2023/08/31 00:12:45;;;;;;;9.48;2.75;;;18.80;99.90;;;;;;5090989;28;20043;-69
2023/08/31 00:15:49;;;;;;;12.25;2.75;;;18.80;99.90;;;;;;5091461;28;20446;-69
2023/08/31 00:18:56;;;;;;;10.90;2.92;;;18.80;99.90;;;;;;5091279;28;20063;-69
2023/08/31 00:22:00;;;;;;;13.07;3.28;;;18.80;99.90;;;;;;5091021;28;20051;-69
2023/08/31 00:25:08;;;;;;;13.07;3.03;;;18.70;99.90;;;;;;5091225;28;20094;-69
2023/08/31 00:28:15;;;;;;;14.05;3.35;;;18.70;99.90;;;;;;5091327;28;20051;-69
2023/08/31 00:31:19;;;;;;;10.25;3.45;;;18.60;99.90;;;;;;5094736;28;20047;-69
2023/08/31 00:34:23;;;;;;;11.40;3.88;;;18.60;99.90;;;;;;5095303;28;20043;-69
2023/08/31 00:37:28;;;;;;;15.63;3.72;;;18.50;99.90;;;;;;5095456;28;20051;-69
2023/08/31 00:40:38;;;;;;;16.77;4.95;;;18.40;99.90;;;;;;5094509;28;20047;-69
2023/08/31 00:43:42;;;;;;;14.73;3.60;;;18.40;99.90;;;;;;5095604;28;20375;-69
2023/08/31 00:46:46;;;;;;;12.10;3.47;;;18.50;99.90;;;;;;5095199;28;20043;-69
2023/08/31 00:49:51;;;;;;;12.70;3.65;;;18.50;99.90;;;;;;5094529;28;20513;-70
2023/08/31 00:52:55;;;;;;;16.83;3.60;;;18.50;99.90;;;;;;5082590;28;20071;-69
2023/08/31 01:10:46;;;;;;;15.25;3.53;;;18.30;99.90;;;;;;5096665;28;20059;-69
2023/08/31 01:14:05;;;;;;;17.27;4.05;;;18.20;99.90;;;;;;5094382;28;20043;-69
2023/08/31 01:17:13;;;;;;;15.27;3.92;;;18.20;99.90;;;;;;5095216;28;20054;-69
2023/08/31 01:20:32;;;;;;;12.55;3.55;;;18.10;99.90;;;;;;5093544;28;20059;-69
2023/08/31 01:23:58;;;;;;;12.43;3.42;;;18.10;99.90;;;;;;5094386;28;20388;-69
2023/08/31 01:27:02;;;;;;;16.95;3.55;;;18.00;99.90;;;;;;5081499;28;20043;-69
2023/08/31 01:30:06;;;;;;;12.55;4.25;;;18.00;99.90;;;;;;5092838;28;20051;-69
2023/08/31 01:33:12;;;;;;;15.90;3.78;;;18.00;99.90;;;;;;5094394;28;20059;-69
2023/08/31 01:36:23;;;;;;;12.35;3.70;;;18.00;99.90;;;;;;5094158;28;20043;-69
2023/08/31 01:39:47;;;;;;;10.82;3.95;;;18.00;99.90;;;;;;5094076;28;20040;-69
2023/08/31 01:42:52;;;;;;;11.60;3.33;;;18.00;99.90;;;;;;5094284;28;20054;-69
2023/08/31 01:45:58;;;;;;;14.68;3.67;;;17.90;99.90;;;;;;5080999;28;20039;-69
2023/08/31 01:49:05;;;;;;;16.92;4.40;;;17.70;99.90;;;;;;5094103;28;20039;-69
2023/08/31 01:52:09;;;;;;;12.43;3.80;;;17.60;99.90;;;;;;5080872;28;20402;-69
2023/08/31 01:55:15;;;;;;;14.35;3.38;;;17.60;99.90;;;;;;5081518;28;20051;-69
2023/08/31 01:58:19;;;;;;;10.18;4.10;;;17.40;99.90;;;;;;5080915;28;20043;-70
2023/08/31 02:01:23;;;;;;;15.75;4.18;;;17.30;99.90;;;;;;5091993;28;20067;-69
2023/08/31 02:04:27;;;;;;;14.38;3.42;;;17.40;99.90;;;;;;5081337;28;20051;-69
2023/08/31 02:07:34;;;;;;;12.00;3.30;;;17.40;99.90;;;;;;5092642;28;20530;-69
2023/08/31 02:10:40;;;;;;;13.60;3.17;;;17.40;99.90;;;;;;5092921;28;20047;-69
2023/08/31 02:13:43;;;;;;;12.57;3.75;;;17.40;99.90;;;;;;5092368;28;20039;-69
2023/08/31 02:16:47;;;;;;;17.10;3.22;;;17.50;99.90;;;;;;5093297;28;20059;-69
2023/08/31 02:19:51;;;;;;;14.45;3.47;;;17.50;99.90;;;;;;5092847;28;20043;-69
2023/08/31 02:22:56;;;;;;;12.30;3.45;;;17.60;99.90;;;;;;5080798;28;20051;-69
2023/08/31 02:25:59;;;;;;;13.57;4.38;;;17.40;99.90;;;;;;5093226;28;20047;-69
2023/08/31 02:29:03;;;;;;;11.73;4.28;;;17.10;99.90;;;;;;5093473;28;20047;-69
2023/08/31 02:32:07;;;;;;;12.52;3.92;;;17.00;99.90;;;;;;5092557;28;20051;-69
2023/08/31 02:35:12;;;;;;;9.05;3.20;;;17.00;99.90;;;;;;5080367;28;20522;-69
2023/08/31 02:38:16;;;;;;;10.93;3.30;;;17.10;99.90;;;;;;5092938;28;20494;-69
2023/08/31 02:41:20;;;;;;;10.43;3.25;;;17.20;99.90;;;;;;5092314;28;20043;-69
2023/08/31 02:44:23;;;;;;;13.80;3.15;;;17.30;99.90;;;;;;5092957;28;20051;-69
2023/08/31 02:47:27;;;;;;;9.98;3.22;;;17.40;99.90;;;;;;5092665;28;20047;-69
2023/08/31 02:50:32;;;;;;;7.88;3.40;;;17.00;99.90;;;;;;5092334;28;20051;-69
2023/08/31 02:53:36;;;;;;;6.60;2.97;;;17.00;99.90;;;;;;5079935;28;20051;-69
2023/08/31 02:56:39;;;;;;;8.75;3.47;;;17.00;99.90;;;;;;5092575;28;20050;-69
2023/08/31 02:59:43;;;;;;;10.98;3.80;;;16.90;99.90;;;;;;5091548;28;20043;-69
2023/08/31 03:02:48;;;;;;;6.63;3.50;;;16.90;99.90;;;;;;5091698;28;20517;-69
2023/08/31 03:05:56;;;;;;;9.55;3.28;;;16.90;99.90;;;;;;5092508;28;20063;-69
2023/08/31 03:09:01;;;;;;;14.50;3.38;;;16.90;99.90;;;;;;5092105;28;20035;-69
2023/08/31 03:12:06;;;;;;;6.63;3.70;;;16.70;99.90;;;;;;5079360;28;20043;-70
2023/08/31 03:15:10;;;;;;;9.32;3.35;;;16.70;99.90;;;;;;5092198;28;20039;-69
2023/08/31 03:18:15;;;;;;;10.90;3.58;;;16.70;99.90;;;;;;5092086;28;20406;-69
2023/08/31 03:21:19;;;;;;;13.40;3.67;;;16.60;99.90;;;;;;5091395;28;20043;-69
2023/08/31 03:24:23;;;;;;;9.70;3.33;;;16.60;99.90;;;;;;5090634;28;20039;-69
2023/08/31 03:27:27;;;;;;;6.57;3.30;;;16.60;99.90;;;;;;5092119;28;20039;-70
2023/08/31 03:30:31;;;;;;;5.82;3.88;;;16.60;99.90;;;;;;5091209;28;20494;-69
2023/08/31 03:33:35;;;;;;;8.25;3.05;;;16.60;99.90;;;;;;5091647;28;20047;-68
2023/08/31 03:36:40;;;;;;;8.68;3.90;;;16.50;99.90;;;;;;5091782;28;20129;-69
2023/08/31 03:39:50;;;;;;;6.97;3.22;;;16.50;99.90;;;;;;5091448;28;20043;-69
2023/08/31 03:42:54;;;;;;;8.40;3.65;;;16.50;99.90;;;;;;5091744;28;20414;-69
2023/08/31 03:46:00;;;;;;;7.32;3.00;;;16.50;99.90;;;;;;5090900;28;20039;-69
2023/08/31 03:49:03;;;;;;;8.60;3.10;;;16.40;99.90;;;;;;5100618;28;20055;-68
2023/08/31 03:52:07;;;;;;;7.82;3.20;;;16.30;99.90;;;;;;5078632;28;20070;-69
2023/08/31 03:55:11;;;;;;;7.32;3.33;;;16.30;99.90;;;;;;5091230;28;20051;-69
2023/08/31 03:58:16;;;;;;;12.63;3.33;;;16.40;99.90;;;;;;5079156;28;20391;-69
2023/08/31 04:01:24;;;;;;;6.50;3.45;;;16.20;99.90;;;;;;5089990;28;20047;-69
2023/08/31 04:04:28;;;;;;;7.88;3.90;;;16.10;99.90;;;;;;5090215;28;20047;-69
2023/08/31 04:07:34;;;;;;;9.93;3.28;;;16.10;99.90;;;;;;5091313;28;20422;-69
2023/08/31 04:10:39;;;;;;;7.45;3.20;;;16.00;99.90;;;;;;5090661;28;20055;-68
2023/08/31 04:13:43;;;;;;;8.55;3.83;;;16.00;99.90;;;;;;5078589;28;20062;-68
2023/08/31 04:16:50;;;;;;;9.90;3.88;;;15.90;99.90;;;;;;5078853;28;20395;-69
2023/08/31 04:19:54;;;;;;;6.10;3.00;;;15.90;99.90;;;;;;5090464;28;20509;-69
2023/08/31 04:22:58;;;;;;;12.32;3.88;;;15.90;99.90;;;;;;5091166;28;20395;-69
2023/08/31 04:26:10;;;;;;;7.07;3.50;;;15.90;99.90;;;;;;5090849;28;20040;-69
2023/08/31 04:29:14;;;;;;;8.63;4.07;;;15.90;99.90;;;;;;5090753;28;20035;-69
2023/08/31 04:32:18;;;;;;;6.75;3.80;;;15.90;99.90;;;;;;5091444;28;20054;-69
2023/08/31 04:35:22;;;;;;;8.32;3.90;;;15.90;99.90;;;;;;5090922;28;20047;-69
2023/08/31 04:38:26;;;;;;;12.85;4.32;;;15.90;99.90;;;;;;5091049;28;20051;-69
2023/08/31 04:41:30;;;;;;;8.98;4.10;;;15.90;99.90;;;;;;5090230;28;20052;-69
2023/08/31 04:44:35;;;;;;;7.13;3.25;;;15.80;99.90;;;;;;5090966;28;20043;-68
2023/08/31 04:47:39;;;;;;;13.55;3.80;;;15.90;99.90;;;;;;5091087;28;20043;-69
2023/08/31 04:50:42;;;;;;;7.70;3.38;;;15.90;99.90;;;;;;5090262;28;20470;-69
2023/08/31 04:53:48;;;;;;;8.77;3.92;;;15.90;99.90;;;;;;5091144;28;20047;-68
2023/08/31 04:56:52;;;;;;;9.93;3.45;;;15.80;99.90;;;;;;5090755;28;20047;-69
2023/08/31 04:59:56;;;;;;;10.40;4.28;;;15.90;99.90;;;;;;5090396;28;20051;-70
2023/08/31 05:03:00;;;;;;;9.18;3.65;;;16.00;99.90;;;;;;5090731;28;20119;-70
2023/08/31 05:06:04;;;;;;;9.65;3.58;;;16.10;99.90;;;;;;5090659;28;20110;-70
2023/08/31 05:09:09;;;;;;;5.80;3.90;;;16.10;99.90;;;;;;5090803;28;20043;-69
2023/08/31 05:12:13;;;;;;;6.88;3.35;;;16.10;99.90;;;;;;5090526;28;20043;-69
2023/08/31 05:15:17;;;;;;;14.55;3.88;;;16.20;99.90;;;;;;5092594;28;20039;-69
2023/08/31 05:18:21;;;;;;;10.15;3.95;;;16.40;99.90;;;;;;5094391;28;20035;-69
2023/08/31 05:21:25;;;;;;;7.13;3.25;;;16.50;99.90;;;;;;5081241;28;20051;-69
2023/08/31 05:24:29;;;;;;;9.77;3.90;;;16.60;99.90;;;;;;5094205;28;20051;-69
2023/08/31 05:27:33;;;;;;;140.98;9.32;;;16.70;99.90;;;;;;5090896;28;20043;-69
2023/08/31 05:30:45;;;;;;;69.65;6.07;;;16.50;99.90;;;;;;5091363;28;20043;-68
2023/08/31 05:33:50;;;;;;;97.10;7.25;;;16.40;99.90;;;;;;5093220;28;20039;-69
2023/08/31 05:36:53;;;;;;;77.32;7.15;;;16.40;99.90;;;;;;5091653;28;20039;-69
2023/08/31 05:39:57;;;;;;;17.33;4.43;;;16.50;99.90;;;;;;5092916;28;20253;-69
2023/08/31 05:43:02;;;;;;;93.35;6.22;;;16.60;99.90;;;;;;5073747;28;20362;-69
2023/08/31 05:46:08;;;;;;;23.55;4.72;;;16.70;99.90;;;;;;5090765;28;20427;-69
2023/08/31 05:49:11;;;;;;;175.55;10.52;;;16.80;99.90;;;;;;5089237;28;20035;-70
2023/08/31 05:52:15;;;;;;;304.00;15.27;;;16.90;99.90;;;;;;5089154;28;20047;-69
2023/08/31 05:55:19;;;;;;;12.07;3.95;;;17.10;99.90;;;;;;5081620;28;20058;-69
2023/08/31 05:58:23;;;;;;;31.25;4.72;;;17.30;99.90;;;;;;5073872;28;20399;-69
2023/08/31 06:01:27;;;;;;;5.50;3.25;;;17.60;99.90;;;;;;5084769;28;20039;-69
2023/08/31 06:04:31;;;;;;;7.07;3.78;;;17.90;99.90;;;;;;5078455;28;20046;-68
2023/08/31 06:07:35;;;;;;;5.53;3.30;;;19.00;99.90;;;;;;5090163;28;20146;-69
2023/08/31 06:10:39;;;;;;;4.28;2.65;;;19.60;99.90;;;;;;5083422;28;20048;-69
2023/08/31 06:13:43;;;;;;;8.40;2.85;;;20.50;99.90;;;;;;5085314;28;20051;-69
2023/08/31 06:16:48;;;;;;;4.75;2.67;;;21.30;99.90;;;;;;5081180;28;20043;-68
2023/08/31 06:19:52;;;;;;;7.15;2.25;;;21.60;99.90;;;;;;5092350;28;20047;-68
2023/08/31 06:22:56;;;;;;;9.23;2.90;;;22.30;99.90;;;;;;5085942;28;20046;-69
2023/08/31 06:26:00;;;;;;;6.78;3.40;;;22.90;99.90;;;;;;5085598;28;20036;-69
2023/08/31 06:29:04;;;;;;;11.52;3.15;;;22.50;99.90;;;;;;5087195;28;20044;-68
2023/08/31 06:32:08;;;;;;;5.43;2.58;;;22.50;99.90;;;;;;5087215;28;20047;-69
2023/08/31 06:35:13;;;;;;;10.65;3.72;;;22.30;99.90;;;;;;5087762;28;20051;-69
2023/08/31 06:38:17;;;;;;;7.70;2.80;;;22.20;99.90;;;;;;5088011;28;20039;-69
2023/08/31 06:41:21;;;;;;;5.03;2.28;;;21.90;99.90;;;;;;5090162;28;20043;-69
2023/08/31 06:44:25;;;;;;;9.40;2.80;;;22.60;99.90;;;;;;5087780;28;20039;-69
2023/08/31 06:47:29;;;;;;;6.70;2.35;;;22.90;99.90;;;;;;5092658;28;20051;-69
2023/08/31 06:50:35;;;;;;;4.88;2.20;;;23.50;99.90;;;;;;5089582;28;20036;-69
2023/08/31 06:53:43;;;;;;;7.50;2.15;;;23.80;99.90;;;;;;5084440;28;20039;-70
2023/08/31 06:56:48;;;;;;;10.02;2.65;;;24.80;99.90;;;;;;5079910;28;20110;-69
2023/08/31 06:59:52;;;;;;;5.97;2.50;;;25.10;99.90;;;;;;5086577;28;20047;-69
2023/08/31 07:02:56;;;;;;;6.80;2.00;;;24.60;99.90;;;;;;5085046;28;20047;-69
2023/08/31 07:06:00;;;;;;;5.88;2.17;;;23.80;99.90;;;;;;5088403;28;20506;-69
2023/08/31 07:09:06;;;;;;;5.32;2.53;;;24.40;99.90;;;;;;5083706;28;20043;-69
2023/08/31 07:12:10;;;;;;;8.48;2.40;;;24.60;99.90;;;;;;5084197;28;20031;-68
2023/08/31 07:15:15;;;;;;;10.80;3.00;;;24.30;99.90;;;;;;5088748;28;20035;-69
2023/08/31 07:18:19;;;;;;;9.07;2.20;;;24.20;99.90;;;;;;5089283;28;20067;-69
2023/08/31 07:21:24;;;;;;;9.88;2.05;;;25.20;99.90;;;;;;5086489;28;20046;-69
2023/08/31 07:24:30;;;;;;;7.65;2.60;;;25.80;99.90;;;;;;5088497;28;20035;-69
2023/08/31 07:27:33;;;;;;;8.43;2.72;;;25.30;99.90;;;;;;5087125;28;20376;-69
2023/08/31 07:30:37;;;;;;;12.02;2.65;;;23.80;99.90;;;;;;5068341;28;20028;-69
2023/08/31 07:33:41;;;;;;;6.43;2.45;;;24.80;99.90;;;;;;5083016;28;20391;-66
2023/08/31 07:36:45;;;;;;;8.23;2.45;;;25.60;99.90;;;;;;5088875;28;20498;-67
2023/08/31 07:39:49;;;;;;;9.65;2.17;;;26.60;99.90;;;;;;5090907;28;20494;-67
2023/08/31 07:42:53;;;;;;;5.43;2.38;;;27.10;99.90;;;;;;5086609;28;20286;-66
2023/08/31 07:45:57;;;;;;;12.05;2.80;;;26.20;99.90;;;;;;5083835;28;20039;-67
2023/08/31 07:49:02;;;;;;;8.57;2.28;;;26.00;99.90;;;;;;5089417;28;20051;-67
2023/08/31 07:52:05;;;;;;;12.45;2.17;;;27.00;99.90;;;;;;5078642;28;20047;-65
2023/08/31 07:55:09;;;;;;;10.35;2.78;;;25.40;99.90;;;;;;5089487;28;20043;-67
2023/08/31 07:58:14;;;;;;;6.85;2.20;;;24.40;99.90;;;;;;5086255;28;20046;-67
2023/08/31 08:01:18;;;;;;;6.97;2.28;;;25.80;99.90;;;;;;5089959;28;20322;-67
2023/08/31 08:04:23;;;;;;;9.13;2.40;;;27.40;99.90;;;;;;5085536;28;20031;-67
2023/08/31 08:07:28;;;;;;;11.73;2.10;;;28.20;99.90;;;;;;5087102;28;20048;-66
2023/08/31 08:10:33;;;;;;;9.43;2.08;;;29.50;99.90;;;;;;5087593;28;20503;-67
2023/08/31 08:13:37;;;;;;;5.78;2.22;;;29.50;99.90;;;;;;5081268;28;20047;-67
2023/08/31 08:16:42;;;;;;;8.02;2.20;;;29.30;99.90;;;;;;5077907;28;20520;-68
2023/08/31 08:19:46;;;;;;;7.43;2.47;;;30.60;99.90;;;;;;5083918;28;20051;-68
2023/08/31 08:22:53;;;;;;;5.15;1.98;;;29.30;99.90;;;;;;5095197;28;20399;-68
2023/08/31 08:25:59;;;;;;;10.38;2.00;;;30.20;98.90;;;;;;5085723;28;20510;-69
2023/08/31 08:29:04;;;;;;;5.90;2.05;;;30.20;99.50;;;;;;5079628;28;20042;-67
2023/08/31 08:32:08;;;;;;;9.93;3.00;;;31.60;97.70;;;;;;5089228;28;20406;-67
2023/08/31 08:35:13;;;;;;;9.25;2.13;;;29.80;98.80;;;;;;5085814;28;20039;-67
2023/08/31 08:38:17;;;;;;;8.73;2.13;;;28.70;99.90;;;;;;5086973;28;20046;-68
2023/08/31 08:41:24;;;;;;;10.80;2.10;;;28.70;99.90;;;;;;5085466;28;20047;-68
2023/08/31 08:44:32;;;;;;;14.07;2.30;;;31.00;97.70;;;;;;5090167;28;20032;-68
2023/08/31 08:47:36;;;;;;;7.18;1.83;;;32.20;96.60;;;;;;5090732;28;20032;-69
2023/08/31 08:50:42;;;;;;;7.60;1.95;;;33.10;95.00;;;;;;5090531;28;20043;-69
2023/08/31 08:53:47;;;;;;;8.63;2.13;;;34.20;94.30;;;;;;5093224;28;20060;-67
2023/08/31 08:56:51;;;;;;;6.20;2.13;;;31.60;94.30;;;;;;5083012;28;20376;-67
2023/08/31 08:59:55;;;;;;;6.63;1.95;;;31.40;94.50;;;;;;5091045;28;20047;-68
2023/08/31 09:03:05;;;;;;;6.47;2.10;;;30.70;95.00;;;;;;5087334;28;20051;-68
2023/08/31 09:06:10;;;;;;;9.90;2.15;;;28.40;97.30;;;;;;5085319;28;20039;-67
2023/08/31 09:09:14;;;;;;;10.55;2.40;;;31.40;96.20;;;;;;5089743;28;20047;-68
2023/08/31 09:12:20;;;;;;;6.30;1.98;;;32.30;94.60;;;;;;5074328;28;20051;-69
2023/08/31 09:15:25;;;;;;;6.45;1.80;;;33.90;93.10;;;;;;5086616;28;20395;-68
2023/08/31 09:18:34;;;;;;;6.35;2.08;;;34.50;91.90;;;;;;5089018;28;20047;-68
2023/08/31 09:21:42;;;;;;;5.88;1.95;;;34.10;91.80;;;;;;5093556;28;20044;-68
2023/08/31 09:24:46;;;;;;;8.50;2.38;;;34.30;91.20;;;;;;5088851;28;20042;-68
2023/08/31 09:27:50;;;;;;;8.90;2.50;;;32.10;91.90;;;;;;5083492;28;20043;-68
2023/08/31 09:31:08;;;;;;;5.35;1.80;;;33.90;91.20;;;;;;5083544;28;20043;-68
2023/08/31 09:34:15;;;;;;;5.53;1.58;;;35.60;90.50;;;;;;5086458;28;20035;-68
2023/08/31 09:37:19;;;;;;;3.92;1.80;;;37.80;87.30;;;;;;5088906;28;20391;-69
2023/08/31 09:40:23;;;;;;;8.10;1.90;;;38.90;85.30;;;;;;5086265;28;20031;-68
2023/08/31 09:43:27;;;;;;;3.55;1.50;;;39.60;81.80;;;;;;5090459;28;20039;-67
2023/08/31 09:46:31;;;;;;;6.05;2.10;;;40.50;78.40;;;;;;5089054;28;20047;-67
2023/08/31 09:49:38;;;;;;;6.97;2.28;;;36.60;79.20;;;;;;5091146;28;20047;-68
2023/08/31 09:52:44;;;;;;;6.25;1.67;;;37.10;81.00;;;;;;5090900;28;20047;-68
2023/08/31 09:55:48;;;;;;;6.50;1.58;;;38.80;81.20;;;;;;5093376;28;20386;-68
2023/08/31 09:58:52;;;;;;;8.45;2.05;;;39.80;78.30;;;;;;5087046;28;20038;-66
2023/08/31 10:01:57;;;;;;;7.75;2.00;;;41.20;77.50;;;;;;5087994;28;20048;-67
2023/08/31 10:05:02;;;;;;;5.90;2.05;;;42.70;74.80;;;;;;5090458;28;20404;-66
2023/08/31 10:08:07;;;;;;;4.65;1.80;;;39.40;73.20;;;;;;5087249;28;20047;-65
2023/08/31 10:11:13;;;;;;;7.63;2.10;;;37.50;74.30;;;;;;5083280;28;20391;-65
2023/08/31 10:14:20;;;;;;;9.15;2.25;;;30.10;85.60;;;;;;5087754;28;20383;-65
2023/08/31 10:17:27;;;;;;;8.23;2.17;;;29.20;89.20;;;;;;5074565;28;20035;-65
2023/08/31 10:20:33;;;;;;;7.53;2.53;;;28.70;90.60;;;;;;5088986;28;20064;-65
2023/08/31 10:23:44;;;;;;;11.02;2.42;;;29.80;90.90;;;;;;5085662;28;20423;-66
2023/08/31 10:26:49;;;;;;;9.50;2.42;;;29.70;90.90;;;;;;5090390;28;20091;-65
2023/08/31 10:29:53;;;;;;;8.48;1.92;;;30.40;90.40;;;;;;5086049;28;20043;-65
2023/08/31 10:33:09;;;;;;;9.50;2.00;;;31.40;89.80;;;;;;5089267;28;20048;-66
2023/08/31 10:36:18;;;;;;;5.93;2.25;;;32.40;86.70;;;;;;5085436;28;20035;-65
2023/08/31 10:39:22;;;;;;;7.97;2.08;;;30.90;87.20;;;;;;5076846;28;20047;-65
2023/08/31 10:42:26;;;;;;;4.03;1.75;;;29.20;89.90;;;;;;5086300;28;20109;-65
2023/08/31 10:45:42;;;;;;;10.80;2.42;;;29.20;91.60;;;;;;5092377;28;20051;-66
2023/08/31 10:49:14;;;;;;;5.70;2.03;;;28.80;92.10;;;;;;5085063;28;20051;-65
2023/08/31 10:52:19;;;;;;;8.32;2.45;;;27.10;93.70;;;;;;5077394;28;20039;-65
2023/08/31 10:55:26;;;;;;;7.60;2.40;;;28.00;94.20;;;;;;5079169;28;20035;-64
2023/08/31 10:58:33;;;;;;;7.35;2.45;;;30.60;92.30;;;;;;5087176;28;20532;-66
2023/08/31 11:01:59;;;;;;;6.22;2.03;;;32.80;88.70;;;;;;5089209;28;20407;-66
2023/08/31 11:05:10;;;;;;;7.35;2.00;;;34.00;87.00;;;;;;5087432;28;20055;-66
2023/08/31 11:08:14;;;;;;;6.28;1.98;;;31.60;87.20;;;;;;5087331;28;20063;-65
2023/08/31 11:11:23;;;;;;;10.82;2.40;;;29.10;91.20;;;;;;5087838;28;20047;-65
2023/08/31 11:14:27;;;;;;;9.65;2.58;;;28.30;92.60;;;;;;5081487;28;20110;-66
2023/08/31 11:17:32;;;;;;;8.55;2.30;;;28.80;93.70;;;;;;5092643;28;20039;-65
2023/08/31 11:20:36;;;;;;;5.80;2.08;;;31.40;91.30;;;;;;5083361;28;20051;-65
2023/08/31 11:23:41;;;;;;;11.57;2.30;;;32.30;90.40;;;;;;5088078;28;20058;-65
2023/08/31 11:26:49;;;;;;;7.03;2.50;;;29.30;91.40;;;;;;5096531;28;20414;-65
2023/08/31 11:29:53;;;;;;;6.95;2.13;;;28.50;94.10;;;;;;5084099;28;20047;-65
2023/08/31 11:33:08;;;;;;;6.85;2.03;;;29.80;93.10;;;;;;5079561;28;20043;-65
2023/08/31 11:36:17;;;;;;;8.77;2.50;;;29.50;92.00;;;;;;5081894;28;20047;-65
2023/08/31 11:39:22;;;;;;;7.20;2.13;;;28.60;93.00;;;;;;5088554;28;20030;-65
2023/08/31 11:42:26;;;;;;;10.10;2.00;;;26.70;95.30;;;;;;5089015;28;20043;-65
2023/08/31 11:45:31;;;;;;;8.10;2.17;;;27.20;95.70;;;;;;5086301;28;20047;-65
2023/08/31 11:48:37;;;;;;;8.15;1.83;;;27.10;95.40;;;;;;5082951;28;20059;-66
2023/08/31 11:51:42;;;;;;;6.90;2.10;;;30.40;93.60;;;;;;5085251;28;20047;-66
2023/08/31 11:54:53;;;;;;;4.53;1.80;;;34.50;89.50;;;;;;5089030;28;20379;-66
2023/08/31 11:57:57;;;;;;;5.93;2.08;;;33.90;86.50;;;;;;5088290;28;20039;-66
2023/08/31 12:01:01;;;;;;;9.75;1.83;;;32.20;88.60;;;;;;5083619;28;20043;-66
2023/08/31 12:04:16;;;;;;;4.80;1.52;;;29.40;91.60;;;;;;5084169;28;20374;-65
2023/08/31 12:07:20;;;;;;;6.15;2.15;;;29.00;93.20;;;;;;5085841;28;20039;-65
2023/08/31 12:10:26;;;;;;;7.40;1.70;;;28.70;92.60;;;;;;5082472;28;20035;-65
2023/08/31 12:13:30;;;;;;;8.15;2.13;;;28.50;93.00;;;;;;5087940;28;20051;-65
2023/08/31 12:16:36;;;;;;;7.55;1.98;;;28.20;93.80;;;;;;5088844;28;20047;-65
2023/08/31 12:19:39;;;;;;;6.07;1.90;;;28.30;93.30;;;;;;5089976;28;20534;-65
2023/08/31 12:22:44;;;;;;;5.95;1.90;;;28.50;94.10;;;;;;5088079;28;20047;-66
2023/08/31 12:25:54;;;;;;;4.68;2.15;;;31.10;92.20;;;;;;5090270;28;20494;-66
2023/08/31 12:28:58;;;;;;;6.30;2.22;;;34.10;89.40;;;;;;5092585;28;20043;-66
2023/08/31 12:32:03;;;;;;;7.72;1.83;;;37.00;84.30;;;;;;5093046;28;20050;-65
2023/08/31 12:35:07;;;;;;;7.70;1.90;;;37.20;81.30;;;;;;5090457;28;20395;-66
2023/08/31 12:38:11;;;;;;;8.60;2.33;;;35.50;82.30;;;;;;5113961;28;20047;-66
2023/08/31 12:41:17;;;;;;;9.63;1.80;;;35.60;83.70;;;;;;5080652;28;20510;-66
2023/08/31 12:44:21;;;;;;;10.15;1.70;;;36.00;82.60;;;;;;5092558;28;20035;-65
2023/08/31 12:47:26;;;;;;;8.80;2.00;;;35.40;83.00;;;;;;5099743;28;20035;-66
2023/08/31 12:50:30;;;;;;;9.63;1.55;;;33.30;82.50;;;;;;5085736;28;20386;-66
2023/08/31 12:53:38;;;;;;;6.40;1.83;;;34.50;82.50;;;;;;5087919;28;20417;-66
2023/08/31 12:56:43;;;;;;;7.45;1.90;;;34.30;82.10;;;;;;5093102;28;20387;-67
2023/08/31 12:59:47;;;;;;;6.25;1.63;;;36.30;81.00;;;;;;5092288;28;20043;-66
2023/08/31 13:02:51;;;;;;;5.22;1.88;;;37.70;78.40;;;;;;5074700;28;20047;-67
2023/08/31 13:05:56;;;;;;;5.28;1.67;;;36.70;79.90;;;;;;5067914;28;20403;-66
2023/08/31 13:09:00;;;;;;;4.47;1.73;;;34.70;79.90;;;;;;5095225;28;20493;-65
2023/08/31 13:12:04;;;;;;;9.02;1.90;;;32.40;83.70;;;;;;5093940;28;20055;-66
2023/08/31 13:15:08;;;;;;;7.43;2.28;;;30.80;85.70;;;;;;5094969;28;20059;-65
2023/08/31 13:18:12;;;;;;;5.53;1.88;;;29.10;88.40;;;;;;5094741;28;20505;-67
2023/08/31 13:21:16;;;;;;;9.25;2.45;;;27.70;91.60;;;;;;5094161;28;20043;-65
2023/08/31 13:24:21;;;;;;;6.78;2.35;;;27.30;92.90;;;;;;5074471;28;20059;-65
2023/08/31 13:27:25;;;;;;;6.13;2.17;;;27.50;93.80;;;;;;5083226;28;20039;-66
2023/08/31 13:30:29;;;;;;;8.40;2.30;;;27.20;93.00;;;;;;5081542;28;20035;-66
2023/08/31 13:33:33;;;;;;;5.57;1.90;;;27.60;94.00;;;;;;5094149;28;20043;-66
2023/08/31 13:36:37;;;;;;;8.20;1.95;;;27.40;93.30;;;;;;5093715;28;20387;-66
2023/08/31 13:39:41;;;;;;;8.27;2.30;;;28.10;92.70;;;;;;5094396;28;20058;-66
2023/08/31 13:43:01;;;;;;;7.72;2.35;;;28.60;92.60;;;;;;5081762;28;20042;-66
2023/08/31 13:46:05;;;;;;;7.38;2.40;;;28.20;91.90;;;;;;5094219;28;20035;-66
2023/08/31 13:49:08;;;;;;;7.18;2.20;;;28.20;92.90;;;;;;5081758;28;20039;-66
2023/08/31 13:52:12;;;;;;;4.15;1.83;;;28.60;92.80;;;;;;5093587;28;20043;-67
2023/08/31 13:55:16;;;;;;;6.47;1.77;;;29.00;92.90;;;;;;5093845;28;20031;-66
2023/08/31 13:58:20;;;;;;;6.43;1.98;;;30.20;91.50;;;;;;5094042;28;20055;-66
2023/08/31 14:01:24;;;;;;;8.38;1.98;;;30.40;91.20;;;;;;5093301;28;20390;-66
2023/08/31 14:04:28;;;;;;;5.15;1.73;;;31.00;90.70;;;;;;5093522;28;20031;-66
2023/08/31 14:07:34;;;;;;;5.88;1.83;;;31.10;89.70;;;;;;5093723;28;20035;-66
2023/08/31 14:10:40;;;;;;;5.53;1.55;;;29.50;90.60;;;;;;5093380;28;20055;-66
2023/08/31 14:13:46;;;;;;;9.52;2.15;;;28.70;91.80;;;;;;5093454;28;20043;-65
2023/08/31 14:16:50;;;;;;;3.65;2.05;;;28.00;92.60;;;;;;5093503;28;20043;-66
2023/08/31 14:19:54;;;;;;;7.32;2.03;;;27.10;93.50;;;;;;5093080;28;20034;-66
2023/08/31 14:22:58;;;;;;;7.60;2.13;;;27.40;94.10;;;;;;5092983;28;20387;-66
2023/08/31 14:26:04;;;;;;;8.60;2.30;;;27.60;93.80;;;;;;5093198;28;20051;-66
2023/08/31 14:29:07;;;;;;;5.65;1.85;;;27.50;93.60;;;;;;5093374;28;20047;-67
2023/08/31 14:32:12;;;;;;;10.20;2.40;;;27.50;94.20;;;;;;5092758;28;20394;-67
2023/08/31 14:35:16;;;;;;;9.32;2.20;;;27.00;94.30;;;;;;5093267;28;20043;-67
2023/08/31 14:38:22;;;;;;;7.68;1.90;;;27.30;94.30;;;;;;5092888;28;20047;-66
2023/08/31 14:41:26;;;;;;;6.63;1.90;;;27.40;94.30;;;;;;5092608;28;20043;-67
2023/08/31 14:44:30;;;;;;;4.53;1.63;;;27.60;93.70;;;;;;5092973;28;20038;-65
2023/08/31 14:47:34;;;;;;;7.28;2.00;;;28.30;93.10;;;;;;5092363;28;20040;-65
2023/08/31 14:50:43;;;;;;;6.45;1.90;;;28.20;92.50;;;;;;5092323;28;20047;-66
2023/08/31 14:53:47;;;;;;;7.95;2.08;;;28.30;93.40;;;;;;5080526;28;20044;-67
2023/08/31 14:56:51;;;;;;;7.55;1.98;;;29.20;92.80;;;;;;5092812;28;20046;-66
2023/08/31 14:59:58;;;;;;;5.47;1.95;;;29.70;92.30;;;;;;5092300;28;20046;-65
2023/08/31 15:03:03;;;;;;;7.20;2.10;;;29.70;91.70;;;;;;5092225;28;20047;-66
2023/08/31 15:06:07;;;;;;;7.90;2.30;;;28.90;92.00;;;;;;5092443;28;20506;-66
2023/08/31 15:09:11;;;;;;;6.88;2.20;;;27.50;93.10;;;;;;5093035;28;20047;-67
2023/08/31 15:12:15;;;;;;;9.20;2.05;;;27.30;94.30;;;;;;5091943;28;20051;-66
2023/08/31 15:15:19;;;;;;;4.70;1.83;;;27.20;93.50;;;;;;5092292;28;20502;-66
2023/08/31 15:18:23;;;;;;;6.00;2.08;;;27.10;94.30;;;;;;5092405;28;20387;-67
2023/08/31 15:21:27;;;;;;;5.30;1.90;;;27.00;94.50;;;;;;5091660;28;20043;-67
2023/08/31 15:24:32;;;;;;;9.35;2.00;;;26.90;95.10;;;;;;5092190;28;20497;-67
2023/08/31 15:27:36;;;;;;;4.80;1.98;;;26.90;95.60;;;;;;5092171;28;20106;-66
2023/08/31 15:30:40;;;;;;;8.48;1.98;;;27.10;95.30;;;;;;5091795;28;20063;-67
2023/08/31 15:33:44;;;;;;;5.50;2.20;;;27.70;94.30;;;;;;5079333;28;20114;-66
2023/08/31 15:36:48;;;;;;;9.45;1.90;;;27.30;94.10;;;;;;5091868;28;20050;-66
2023/08/31 15:39:52;;;;;;;6.38;1.60;;;27.40;93.70;;;;;;5091673;28;20234;-66
2023/08/31 15:42:56;;;;;;;8.73;1.83;;;27.40;94.20;;;;;;5091841;28;20047;-67
2023/08/31 15:46:01;;;;;;;5.82;1.60;;;27.00;94.50;;;;;;5092185;28;20505;-67
2023/08/31 15:49:05;;;;;;;5.63;1.73;;;27.10;94.20;;;;;;5091887;28;20043;-66
2023/08/31 15:52:09;;;;;;;6.38;2.00;;;27.10;94.60;;;;;;5091383;28;20043;-67
2023/08/31 15:55:13;;;;;;;3.10;1.60;;;27.10;94.50;;;;;;5091513;28;20043;-67
2023/08/31 15:58:17;;;;;;;11.00;2.10;;;26.90;94.90;;;;;;5090737;28;20497;-66
2023/08/31 16:01:21;;;;;;;8.52;2.53;;;26.70;95.00;;;;;;5091029;28;20043;-67
2023/08/31 16:04:25;;;;;;;6.47;1.70;;;26.60;95.60;;;;;;5091417;28;20043;-66
2023/08/31 16:07:29;;;;;;;6.13;1.90;;;26.60;95.30;;;;;;5091498;28;20043;-67
2023/08/31 16:10:33;;;;;;;6.60;2.03;;;26.40;95.70;;;;;;5091131;28;20043;-67
2023/08/31 16:13:40;;;;;;;4.93;1.90;;;26.40;96.30;;;;;;5091408;28;20075;-67